Time;durP1;ratioP1;P1;durP2;ratioP2;P2;SDS_P1;SDS_P2;PMS_P1;PMS_P2;Temp;Humidity;BMP_temperature;BMP_pressure;BME280_temperature;BME280_humidity;BME280_pressure;Samples;Min_cycle;Max_cycle;Signal;HPM_P1;HPM_P2
2022/06/17 06:25:00;;;;;;;;;13.75;12.75;;;;;22.35;51.64;101923.28;5083855;27;55389;-76
2022/06/17 06:27:25;;;;;;;;;13.50;12.75;;;;;22.54;52.06;101927.16;5090948;27;45513;-76
2022/06/17 06:29:50;;;;;;;;;12.33;11.33;;;;;22.79;51.96;101922.28;5093939;27;46314;-77
2022/06/17 06:32:16;;;;;;;;;14.00;12.00;;;;;23.07;51.48;101930.69;5098260;27;46886;-77
2022/06/17 06:34:41;;;;;;;;;13.33;10.33;;;;;23.37;51.42;101926.22;5089124;27;47028;-77
2022/06/17 06:37:06;;;;;;;;;11.00;11.00;;;;;23.68;50.93;101924.31;5097462;27;45822;-77
2022/06/17 06:39:31;;;;;;;;;11.50;11.50;;;;;23.97;50.46;101906.34;5100544;27;45547;-78
2022/06/17 06:41:57;;;;;;;;;12.00;12.00;;;;;24.25;50.04;101914.63;5091837;27;45932;-77
2022/06/17 06:44:22;;;;;;;;;14.33;12.33;;;;;24.52;49.48;101904.00;5096270;27;45954;-77
2022/06/17 06:46:48;;;;;;;;;11.00;11.00;;;;;24.77;48.98;101901.63;5097476;27;45484;-75
2022/06/17 06:49:13;;;;;;;;;11.33;11.33;;;;;24.91;48.78;101906.59;5100863;27;48018;-76
2022/06/17 06:51:38;;;;;;;;;13.00;13.00;;;;;25.03;48.83;101912.69;5105118;27;49824;-77
2022/06/17 06:54:04;;;;;;;;;12.33;11.33;;;;;25.11;48.17;101909.22;5106657;27;46562;-77
2022/06/17 06:56:30;;;;;;;;;10.33;10.33;;;;;25.20;48.23;101908.31;5104758;27;45522;-76
2022/06/17 06:58:55;;;;;;;;;12.00;12.00;;;;;25.27;48.03;101900.41;5097910;27;45848;-75
2022/06/17 07:01:21;;;;;;;;;12.33;10.33;;;;;25.38;47.31;101902.06;5097806;27;47011;-75
2022/06/17 07:03:46;;;;;;;;;14.00;12.33;;;;;25.48;47.41;101900.13;5105299;27;47539;-76
2022/06/17 07:06:13;;;;;;;;;12.00;10.33;;;;;25.56;46.90;101895.81;5104746;27;45459;-76
2022/06/17 07:08:39;;;;;;;;;12.00;12.00;;;;;25.64;45.97;101894.03;5104689;27;45766;-75
2022/06/17 07:11:06;;;;;;;;;13.00;11.33;;;;;25.74;45.98;101901.25;5104182;27;45437;-76
2022/06/17 07:13:32;;;;;;;;;10.33;10.00;;;;;25.80;45.87;101908.78;5103705;27;45497;-77
2022/06/17 07:15:59;;;;;;;;;14.67;13.33;;;;;25.77;46.01;101893.66;5100490;27;45751;-77
2022/06/17 07:18:30;;;;;;;;;12.67;12.67;;;;;25.87;45.88;101914.47;5100863;27;45524;-77
2022/06/17 07:20:59;;;;;;;;;12.00;10.67;;;;;25.85;45.88;101905.59;5106886;27;45580;-76
2022/06/17 07:23:30;;;;;;;;;11.00;11.00;;;;;25.95;45.50;101913.69;5108236;27;45755;-77
2022/06/17 07:26:00;;;;;;;;;10.00;10.00;;;;;25.98;45.59;101925.09;5101512;27;45498;-77
2022/06/17 07:28:27;;;;;;;;;12.00;12.00;;;;;26.02;46.25;101929.22;5102019;27;45399;-76
2022/06/17 07:30:53;;;;;;;;;10.00;10.00;;;;;26.08;45.56;101935.03;5103932;27;45572;-75
2022/06/17 07:33:21;;;;;;;;;11.67;10.00;;;;;26.12;46.13;101941.88;5102854;27;46622;-76
2022/06/17 07:35:48;;;;;;;;;12.00;12.00;;;;;26.16;45.71;101941.38;5091095;27;45547;-76
2022/06/17 07:41:01;;;;;;;;;13.00;11.67;;;;;26.20;45.58;101941.09;5088704;27;46555;-77
2022/06/17 07:43:26;;;;;;;;;13.00;12.33;;;;;26.17;45.82;101937.66;5090074;27;45992;-75
2022/06/17 07:45:51;;;;;;;;;12.00;12.00;;;;;26.17;45.48;101940.38;5090352;27;45426;-76
2022/06/17 07:48:18;;;;;;;;;12.00;8.67;;;;;26.18;45.85;101938.50;5079350;27;45490;-76
2022/06/17 07:50:44;;;;;;;;;11.00;11.00;;;;;26.20;45.82;101930.19;5081373;27;45556;-77
2022/06/17 07:53:10;;;;;;;;;10.67;10.33;;;;;26.22;46.02;101947.22;5082260;27;46088;-77
2022/06/17 07:55:37;;;;;;;;;9.67;9.67;;;;;26.22;45.73;101949.94;5082034;27;45450;-77
2022/06/17 07:58:04;;;;;;;;;11.00;11.00;;;;;26.23;45.85;101951.66;5084782;27;45478;-77
2022/06/17 08:00:38;;;;;;;;;10.00;10.00;;;;;26.24;45.62;101966.97;5081531;27;45383;-77
2022/06/17 08:03:04;;;;;;;;;12.33;11.00;;;;;26.28;45.25;101963.78;5086923;27;46326;-77
2022/06/17 08:05:31;;;;;;;;;9.67;9.67;;;;;26.35;45.58;101965.91;5091178;27;45681;-77
2022/06/17 08:07:59;;;;;;;;;12.00;12.00;;;;;26.38;45.39;101955.56;5084267;27;45526;-77
2022/06/17 08:10:28;;;;;;;;;11.00;11.00;;;;;26.44;45.03;101962.22;5085744;27;45550;-75
2022/06/17 08:12:53;;;;;;;;;11.67;11.67;;;;;26.49;44.90;101959.88;5088203;27;46212;-75
2022/06/17 08:15:19;;;;;;;;;11.00;11.00;;;;;26.53;44.85;101972.16;5086187;27;46192;-75
2022/06/17 08:17:45;;;;;;;;;10.67;10.67;;;;;26.56;44.86;101973.69;5093284;27;45327;-75
2022/06/17 08:20:20;;;;;;;;;10.33;10.33;;;;;26.58;44.45;101980.69;5092121;27;45505;-75
2022/06/17 08:22:45;;;;;;;;;12.33;11.33;;;;;26.62;44.66;101986.69;5081264;27;45454;-76
2022/06/17 08:25:12;;;;;;;;;10.33;9.00;;;;;26.59;44.53;101984.28;5090211;27;45474;-75
2022/06/17 08:27:46;;;;;;;;;11.00;11.00;;;;;26.57;44.69;101992.59;5091021;27;45532;-75
2022/06/17 08:30:13;;;;;;;;;12.00;11.00;;;;;26.56;44.47;101984.59;5088736;27;45383;-75
2022/06/17 08:32:48;;;;;;;;;10.67;9.00;;;;;26.54;44.76;101970.28;5091023;27;46018;-76
2022/06/17 08:35:20;;;;;;;;;11.00;11.00;;;;;26.53;44.34;101960.41;5092090;27;45770;-77
2022/06/17 08:37:46;;;;;;;;;12.67;12.67;;;;;26.55;44.98;101961.09;5084386;27;45526;-76
2022/06/17 08:40:29;;;;;;;;;12.33;10.33;;;;;26.56;44.52;101965.53;5083465;27;45370;-76
2022/06/17 11:46:56;;;;;;;;;5.00;5.00;;;;;24.22;51.25;101893.19;5062672;27;46079;-77
2022/06/17 11:49:24;;;;;;;;;7.67;7.00;;;;;24.35;51.31;101898.31;5051712;28;45562;-78
2022/06/17 11:52:01;;;;;;;;;9.00;8.33;;;;;24.54;51.33;101897.41;5049586;28;46046;-77
2022/06/17 11:54:32;;;;;;;;;9.33;9.00;;;;;24.73;50.61;101890.22;5077518;27;45538;-74
2022/06/17 11:57:11;;;;;;;;;8.00;8.00;;;;;24.85;50.65;101880.06;5065321;28;46213;-74
2022/06/17 11:59:42;;;;;;;;;9.00;9.00;;;;;24.96;50.41;101868.97;5065190;28;45410;-75
2022/06/17 12:02:08;;;;;;;;;12.00;11.00;;;;;25.05;50.09;101869.94;5065374;28;45526;-75
2022/06/17 12:04:33;;;;;;;;;10.33;10.00;;;;;25.16;49.74;101868.00;5062819;28;45336;-76
2022/06/17 12:06:58;;;;;;;;;10.33;9.67;;;;;25.24;49.74;101862.66;5063882;28;45376;-75
2022/06/17 12:09:37;;;;;;;;;8.67;8.33;;;;;25.31;49.45;101866.50;5058362;28;45389;-75
2022/06/17 12:12:10;;;;;;;;;13.00;12.00;;;;;25.38;49.25;101861.31;5061582;28;45414;-75
2022/06/17 12:14:50;;;;;;;;;11.00;11.00;;;;;25.47;49.04;101859.50;5067302;28;45414;-76
2022/06/17 12:17:17;;;;;;;;;10.00;9.00;;;;;25.55;49.00;101853.31;5051376;28;47066;-76
2022/06/17 12:19:42;;;;;;;;;10.00;10.00;;;;;25.57;49.39;101844.00;5057478;28;46017;-76
2022/06/17 12:22:31;;;;;;;;;10.33;9.33;;;;;25.63;48.93;101846.09;5056098;28;56340;-76
2022/06/17 12:25:18;;;;;;;;;8.33;8.33;;;;;25.72;48.49;101849.75;5057949;28;45551;-76
2022/06/17 12:27:55;;;;;;;;;9.67;9.67;;;;;25.75;48.58;101854.03;5062042;28;46666;-76
2022/06/17 12:30:44;;;;;;;;;8.00;8.00;;;;;25.79;48.78;101845.38;5055980;28;46339;-74
2022/06/17 12:33:21;;;;;;;;;6.67;6.67;;;;;25.84;48.37;101841.34;5047932;28;45711;-74
2022/06/17 12:35:52;;;;;;;;;9.33;9.33;;;;;25.87;48.46;101847.31;5052929;27;46026;-75
2022/06/17 12:38:45;;;;;;;;;8.33;8.33;;;;;25.94;48.39;101838.53;5049154;27;47204;-75
2022/06/17 12:41:20;;;;;;;;;8.67;8.67;;;;;25.97;48.16;101836.34;5048810;28;45573;-74
2022/06/17 12:43:59;;;;;;;;;8.00;8.00;;;;;25.99;47.75;101833.47;5047302;28;46455;-74
2022/06/17 12:46:38;;;;;;;;;8.00;8.00;;;;;26.03;48.06;101841.16;5064589;27;45682;-75
2022/06/17 12:55:32;;;;;;;;;7.00;7.00;;;;;26.12;48.05;101822.16;4977416;28;45569;-75
2022/06/17 12:58:19;;;;;;;;;9.00;9.00;;;;;26.12;47.63;101817.56;4962452;28;46118;-75
2022/06/17 13:00:59;;;;;;;;;10.33;10.33;;;;;26.10;47.96;101813.28;4960846;28;48890;-74
2022/06/17 13:03:33;;;;;;;;;10.00;9.00;;;;;26.09;47.40;101808.88;4960572;28;47263;-74
2022/06/17 13:06:11;;;;;;;;;9.33;8.00;;;;;26.09;47.97;101811.59;4961923;28;45556;-74
2022/06/17 13:08:54;;;;;;;;;8.00;8.00;;;;;26.11;47.73;101812.31;4963412;28;45873;-74
2022/06/17 13:11:36;;;;;;;;;8.33;7.67;;;;;26.12;48.08;101809.41;4962587;28;46622;-75
2022/06/17 13:14:07;;;;;;;;;9.00;7.00;;;;;26.14;47.89;101812.84;4962945;28;47381;-74
2022/06/17 13:16:45;;;;;;;;;9.00;9.00;;;;;26.16;47.95;101810.78;4961997;28;45581;-75
2022/06/17 13:19:14;;;;;;;;;8.00;8.00;;;;;26.18;47.50;101805.19;4963196;28;46819;-77
2022/06/17 13:21:49;;;;;;;;;2.00;2.00;;;;;26.17;47.72;101804.31;4961300;28;45976;-74
2022/06/17 13:24:37;;;;;;;;;8.67;8.67;;;;;26.19;47.47;101809.63;4962810;28;46316;-77
2022/06/17 13:27:12;;;;;;;;;8.33;8.33;;;;;26.21;47.33;101809.47;4961055;28;46177;-78
2022/06/17 13:30:05;;;;;;;;;9.00;9.00;;;;;26.24;47.37;101811.88;5036191;28;47193;-77
2022/06/17 13:32:42;;;;;;;;;11.33;9.33;;;;;26.26;47.18;101804.41;5057304;28;45523;-77
2022/06/17 13:35:21;;;;;;;;;7.00;7.00;;;;;26.28;47.69;101796.97;5056476;28;45612;-77
2022/06/17 13:38:01;;;;;;;;;8.67;8.67;;;;;26.30;47.45;101792.19;5054524;28;45499;-76
2022/06/17 13:40:40;;;;;;;;;8.00;8.00;;;;;26.30;47.71;101793.06;5054800;28;45922;-75
2022/06/17 13:43:13;;;;;;;;;9.00;9.00;;;;;26.30;47.66;101786.75;5054993;28;46852;-76
2022/06/17 13:46:29;;;;;;;;;10.33;8.67;;;;;26.31;47.13;101774.84;5054352;28;46169;-75
2022/06/17 13:49:33;;;;;;;;;6.67;6.67;;;;;26.30;47.26;101774.00;4994251;28;45901;-76
2022/06/17 13:52:16;;;;;;;;;8.33;7.33;;;;;26.33;47.30;101781.00;4994006;28;45642;-78
2022/06/17 13:54:55;;;;;;;;;8.00;8.00;;;;;26.37;47.26;101778.78;4993240;28;46130;-76
2022/06/17 13:57:40;;;;;;;;;6.33;6.33;;;;;26.39;47.21;101772.16;4993669;28;47172;-76
2022/06/17 14:00:23;;;;;;;;;7.00;7.00;;;;;26.40;47.10;101770.31;4996202;28;45552;-75
2022/06/17 14:02:57;;;;;;;;;6.33;6.33;;;;;26.41;47.49;101772.84;4996073;28;45482;-76
2022/06/17 14:05:34;;;;;;;;;7.00;6.00;;;;;26.42;47.38;101771.84;4995807;28;45592;-76
2022/06/17 14:08:01;;;;;;;;;7.67;7.67;;;;;26.43;47.31;101779.00;4991672;28;45803;-75
2022/06/17 14:10:44;;;;;;;;;10.67;9.00;;;;;26.44;47.12;101772.53;4994471;28;45555;-76
2022/06/17 14:13:34;;;;;;;;;8.33;8.00;;;;;26.44;47.53;101763.50;4994438;28;45647;-76
2022/06/17 14:16:04;;;;;;;;;6.67;6.67;;;;;26.45;47.06;101770.69;4994092;28;46330;-76
2022/06/17 14:18:42;;;;;;;;;10.67;9.67;;;;;26.45;47.48;101773.41;4992927;28;45724;-75
2022/06/17 14:21:22;;;;;;;;;6.67;6.00;;;;;26.46;47.33;101774.22;4994617;28;45688;-78
2022/06/17 14:23:49;;;;;;;;;6.33;6.33;;;;;26.45;46.71;101778.84;5005499;28;45564;-77
2022/06/17 14:26:40;;;;;;;;;9.00;8.00;;;;;26.42;47.53;101771.00;5054778;28;46378;-75
2022/06/17 14:29:08;;;;;;;;;7.00;7.00;;;;;26.42;47.52;101774.56;5054105;28;45534;-75
2022/06/17 14:31:36;;;;;;;;;7.33;7.33;;;;;26.41;47.10;101766.56;5053869;28;46852;-75
2022/06/17 14:34:18;;;;;;;;;8.00;7.33;;;;;26.40;47.30;101760.25;5054882;28;45523;-77
2022/06/17 14:36:52;;;;;;;;;7.67;7.67;;;;;26.41;47.52;101761.13;5053087;28;46090;-75
2022/06/17 14:39:39;;;;;;;;;8.33;8.33;;;;;26.39;47.53;101755.84;5057882;28;46132;-77
2022/06/17 14:42:14;;;;;;;;;8.33;8.33;;;;;26.39;47.26;101750.41;5055800;28;46688;-75
2022/06/17 14:44:43;;;;;;;;;9.67;7.67;;;;;26.42;47.07;101751.94;5056713;28;45578;-75
2022/06/17 14:47:21;;;;;;;;;9.00;9.00;;;;;26.44;47.09;101741.72;5053618;28;45468;-75
2022/06/17 14:49:55;;;;;;;;;7.33;7.33;;;;;26.46;47.44;101741.56;5054451;28;45828;-77
2022/06/17 14:52:33;;;;;;;;;8.67;8.33;;;;;26.47;47.65;101738.69;5054693;28;45835;-76
2022/06/17 14:55:18;;;;;;;;;10.00;7.00;;;;;26.48;46.70;101732.22;5052553;28;45531;-76
2022/06/17 14:57:55;;;;;;;;;9.00;8.00;;;;;26.53;47.72;101735.28;5053689;28;47148;-79
2022/06/17 15:00:24;;;;;;;;;8.00;8.00;;;;;26.55;47.57;101722.38;5052774;28;45593;-81
2022/06/17 15:02:52;;;;;;;;;8.67;8.67;;;;;26.60;47.63;101731.94;5054307;28;45517;-78
2022/06/17 15:05:27;;;;;;;;;7.33;7.33;;;;;26.62;47.36;101724.44;5054312;28;45567;-77
2022/06/17 15:08:00;;;;;;;;;9.00;9.00;;;;;26.63;47.42;101724.28;5053666;28;46149;-78
2022/06/17 15:10:32;;;;;;;;;8.67;8.33;;;;;26.64;47.07;101720.53;5054781;28;46675;-78
2022/06/17 15:13:04;;;;;;;;;9.00;8.00;;;;;26.67;47.01;101714.78;5050309;28;47333;-78
2022/06/17 15:15:40;;;;;;;;;8.00;8.00;;;;;26.70;47.32;101714.41;5054925;27;45742;-77
2022/06/17 15:18:18;;;;;;;;;6.67;6.67;;;;;26.70;47.28;101710.84;5052496;28;45688;-79
2022/06/17 15:20:48;;;;;;;;;6.67;6.67;;;;;26.66;47.10;101715.78;5052778;28;47104;-78
2022/06/17 15:23:26;;;;;;;;;8.67;8.67;;;;;26.61;46.76;101714.56;5063399;27;45470;-77
2022/06/17 15:26:09;;;;;;;;;6.33;6.33;;;;;26.57;47.09;101712.19;5058398;28;45721;-76
2022/06/17 15:28:42;;;;;;;;;8.00;8.00;;;;;26.59;47.01;101717.47;5053683;28;47175;-75
2022/06/17 15:31:20;;;;;;;;;9.33;9.33;;;;;26.61;46.95;101710.00;5060594;28;45536;-77
2022/06/17 15:33:58;;;;;;;;;10.00;9.00;;;;;26.63;47.21;101707.94;5047707;28;45551;-75
2022/06/17 15:36:28;;;;;;;;;7.67;7.67;;;;;26.66;47.37;101706.75;5048180;28;45479;-79
2022/06/17 15:39:19;;;;;;;;;7.00;7.00;;;;;26.69;46.84;101715.44;5061335;28;46037;-79
2022/06/17 15:41:55;;;;;;;;;8.00;7.00;;;;;26.71;46.69;101715.28;5006673;28;45619;-76
2022/06/17 15:44:24;;;;;;;;;8.67;8.67;;;;;26.73;46.69;101720.56;5008457;28;47571;-78
2022/06/17 15:46:57;;;;;;;;;7.67;7.67;;;;;26.75;46.84;101713.06;5005470;28;47922;-78
2022/06/17 15:49:49;;;;;;;;;10.00;8.00;;;;;26.77;46.81;101706.44;5006841;28;46061;-78
2022/06/17 15:52:28;;;;;;;;;8.00;8.00;;;;;26.79;46.49;101698.97;5005302;28;47020;-75
2022/06/17 15:54:59;;;;;;;;;8.67;7.00;;;;;26.80;46.65;101699.78;5005615;28;45482;-75
2022/06/17 15:57:33;;;;;;;;;6.67;6.67;;;;;26.80;47.08;101697.94;5005343;28;45604;-74
2022/06/17 16:00:00;;;;;;;;;6.33;6.00;;;;;26.81;46.92;101701.53;5005806;28;46224;-75
2022/06/17 16:02:28;;;;;;;;;7.00;6.00;;;;;26.82;46.88;101703.22;5006672;28;45567;-77
2022/06/17 16:05:09;;;;;;;;;8.00;8.00;;;;;26.84;46.38;101702.03;5007131;28;45731;-78
2022/06/17 16:07:35;;;;;;;;;8.00;7.67;;;;;26.84;46.55;101691.13;5005124;28;45501;-77
2022/06/17 16:10:00;;;;;;;;;8.00;7.33;;;;;26.86;46.98;101690.13;5013173;28;46161;-77
2022/06/17 16:12:25;;;;;;;;;7.00;6.67;;;;;26.86;46.51;101684.66;5006642;28;45521;-76
2022/06/17 16:15:16;;;;;;;;;7.33;7.33;;;;;26.87;46.99;101681.78;5005859;28;45543;-75
2022/06/17 16:17:47;;;;;;;;;7.00;7.00;;;;;26.88;46.51;101683.47;5007523;28;46256;-75
2022/06/17 16:20:12;;;;;;;;;6.67;6.67;;;;;26.89;46.45;101687.06;5047457;28;46139;-77
2022/06/17 16:22:38;;;;;;;;;7.33;7.00;;;;;26.91;46.51;101676.84;5051379;28;45476;-77
2022/06/17 16:25:05;;;;;;;;;9.00;9.00;;;;;26.92;46.19;101686.72;5062934;28;45474;-77
2022/06/17 16:27:35;;;;;;;;;7.33;7.33;;;;;26.91;46.22;101687.72;5065288;28;46154;-78
2022/06/17 16:30:05;;;;;;;;;8.00;8.00;;;;;26.89;46.42;101687.06;5059123;28;46194;-76
2022/06/17 16:32:33;;;;;;;;;6.00;6.00;;;;;26.89;46.97;101676.16;5054945;28;45364;-78
2022/06/17 16:34:58;;;;;;;;;6.00;6.00;;;;;27.03;46.50;101680.97;5063772;27;45534;-78
2022/06/17 16:37:32;;;;;;;;;6.67;6.67;;;;;27.25;46.38;101680.47;5059554;28;45491;-78
2022/06/17 16:46:23;;;;;;;;;6.67;6.33;;;;;27.97;44.52;101690.56;5072214;28;45499;-79
2022/06/17 16:48:49;;;;;;;;;8.00;8.00;;;;;28.14;44.32;101699.53;4971430;28;45428;-78
2022/06/17 16:51:16;;;;;;;;;7.00;7.00;;;;;28.30;44.09;101696.94;4984692;28;45625;-78
2022/06/17 16:53:42;;;;;;;;;6.00;6.00;;;;;28.43;43.74;101689.03;4973392;28;45454;-78
2022/06/17 16:56:18;;;;;;;;;7.33;7.00;;;;;28.55;43.99;101692.19;4968276;28;45375;-78
2022/06/17 16:58:43;;;;;;;;;8.00;8.00;;;;;28.64;43.76;101692.97;4969786;28;45540;-78
2022/06/17 17:01:10;;;;;;;;;5.33;5.33;;;;;28.75;43.84;101689.00;4967052;28;47029;-77
2022/06/17 17:03:35;;;;;;;;;9.67;8.00;;;;;28.52;43.84;101698.88;4962544;28;45855;-80
2022/06/17 17:06:01;;;;;;;;;7.00;7.00;;;;;28.19;44.47;101695.44;4959680;28;49927;-79
2022/06/17 17:08:26;;;;;;;;;8.67;7.33;;;;;27.85;44.39;101684.63;4965100;28;46064;-79
2022/06/17 17:10:52;;;;;;;;;6.00;6.00;;;;;27.58;45.06;101691.31;4971799;28;45918;-79
2022/06/17 17:13:18;;;;;;;;;10.33;9.00;;;;;27.35;45.06;101687.41;4964009;28;45663;-79
2022/06/17 17:15:43;;;;;;;;;7.00;7.00;;;;;27.16;45.18;101685.91;4965520;28;45874;-79
2022/06/17 17:18:08;;;;;;;;;9.00;7.00;;;;;27.04;45.79;101687.25;4964086;28;46650;-80
2022/06/17 17:20:37;;;;;;;;;7.00;7.00;;;;;26.91;45.89;101683.16;4965107;28;45579;-80
2022/06/17 17:23:06;;;;;;;;;10.33;8.33;;;;;26.82;46.46;101695.06;4964848;28;46784;-79
2022/06/17 17:25:36;;;;;;;;;8.67;8.00;;;;;26.75;46.44;101691.28;5057250;28;45547;-79
2022/06/17 17:28:03;;;;;;;;;8.67;6.67;;;;;26.68;46.85;101683.78;5049938;28;45750;-79
2022/06/17 17:30:31;;;;;;;;;6.67;6.00;;;;;26.64;46.53;101690.59;5050403;28;47124;-79
2022/06/17 17:32:56;;;;;;;;;6.00;6.00;;;;;26.60;46.79;101693.81;5049823;28;47268;-82
2022/06/17 17:35:21;;;;;;;;;8.00;8.00;;;;;26.55;46.94;101695.16;5052548;28;45675;-81
2022/06/17 17:37:47;;;;;;;;;6.33;6.33;;;;;26.53;47.39;101694.47;5059218;27;45743;-82
2022/06/17 17:40:12;;;;;;;;;7.00;7.00;;;;;26.49;46.71;101700.41;5054595;28;46011;-81
2022/06/17 17:42:39;;;;;;;;;6.00;6.00;;;;;26.48;47.21;101688.66;5058758;28;45904;-79
2022/06/17 17:45:13;;;;;;;;;6.33;6.33;;;;;26.47;46.96;101686.97;5049021;28;45544;-81
2022/06/17 17:47:38;;;;;;;;;7.00;7.00;;;;;26.46;46.90;101695.28;5051830;28;45633;-81
2022/06/17 17:50:07;;;;;;;;;7.33;7.33;;;;;26.42;47.64;101692.06;5050299;28;45448;-80
2022/06/17 17:52:33;;;;;;;;;9.00;6.00;;;;;26.39;47.53;101700.53;5057301;28;45755;-80
2022/06/17 17:54:58;;;;;;;;;8.33;6.67;;;;;26.38;47.35;101704.28;5070928;28;52267;-81
2022/06/17 17:57:23;;;;;;;;;9.33;8.00;;;;;26.38;47.05;101701.56;5067057;28;45566;-81
2022/06/17 17:59:49;;;;;;;;;9.00;8.33;;;;;26.37;47.27;101708.03;5061959;28;45978;-81
2022/06/17 18:02:15;;;;;;;;;6.33;6.33;;;;;26.37;47.68;101702.59;5040871;28;45466;-80
